»·PEaware :: ASA426 PASI-KSNA

ASA426 :: PASI-KSNA

FLIGHT INFORMATION

Flight Status: Arrived
Operator:
Alaska Airlines
More flights by this operator :: More flights under this callsign
Pilot: Bob S. (40)
Aircraft: BOEING 737-700
(B737)
More flights by this aircraft type
Origin: PASI Sitka Rocky Gutierrez
United States
Destination: KSNA John Wayne-Orange Co
United States
More flights between these airports :: More routes between these airports
Route: BKA ANN YZT TOU WAPTO HQM AVE FIM TANDY3
File this flight plan on PilotEdge
Remarks: EXPECTING RWY19R ILS
Altitude:
(Current/Filed)
33,000ft
Speed:
(Current/Filed)
450kts
Departed: 06-Apr-11 03:23 PM
Arrived: 06-Apr-11 07:11 PM
Distance/Time
Traveled:
1574nm/3:48
Distance/Time
To Go:
Arrived

Flight Plot

Page will automatically refresh every two minutes.


Map Options




Map Legend


Flown Route
Filed Route
Departure Airport
Arrival Airport
Navaid (VOR, NDB)
Fix

Horizontal Profiles

Position Reports

Time Latitude Longitude Heading Altitude Ground
Speed
06-Apr-11 15:20 57.051071 -135.364351 154 32ft 14kts
06-Apr-11 15:21 57.047902 -135.363194 309 32ft 42kts
06-Apr-11 15:22 57.093015 -135.430479 320 3540ft 322kts
06-Apr-11 15:23 57.122374 -135.609965 262 9662ft 408kts
06-Apr-11 15:24 57.044972 -135.747776 194 13797ft 432kts
06-Apr-11 15:25 56.938867 -135.648023 133 17999ft 482kts
06-Apr-11 15:26 56.820358 -135.460141 132 23267ft 516kts
06-Apr-11 15:27 56.748531 -135.287499 132 27118ft 513kts
06-Apr-11 15:28 56.663489 -135.086078 133 31729ft 495kts
06-Apr-11 15:29 56.587459 -134.907550 133 32929ft 493kts
06-Apr-11 15:30 56.512350 -134.732522 131 32861ft 404kts
06-Apr-11 15:31 56.440205 -134.566185 130 32868ft 431kts
06-Apr-11 15:32 56.365854 -134.395392 129 32870ft 434kts
06-Apr-11 15:33 56.291107 -134.224797 128 32875ft 436kts
06-Apr-11 15:34 56.215618 -134.053737 128 32875ft 437kts
06-Apr-11 15:35 56.139684 -133.882999 128 32873ft 438kts
06-Apr-11 15:36 56.063399 -133.712570 128 32873ft 439kts
06-Apr-11 15:37 55.987322 -133.544330 130 32850ft 437kts
06-Apr-11 15:38 55.909521 -133.373106 132 32835ft 456kts
06-Apr-11 15:39 55.828220 -133.195343 131 32836ft 468kts
06-Apr-11 15:40 55.745292 -133.015327 130 32836ft 471kts
06-Apr-11 15:41 55.662133 -132.836172 129 32836ft 471kts
06-Apr-11 15:42 55.578488 -132.657298 129 32836ft 471kts
06-Apr-11 15:43 55.495323 -132.481351 130 32835ft 470kts
06-Apr-11 15:44 55.411523 -132.304793 130 32835ft 470kts
06-Apr-11 15:45 55.327948 -132.129880 130 32833ft 470kts
06-Apr-11 15:46 55.243851 -131.955165 130 32833ft 470kts
06-Apr-11 15:47 55.159449 -131.781087 130 32833ft 470kts
06-Apr-11 15:48 55.075198 -131.608684 131 32834ft 470kts
06-Apr-11 15:49 54.968225 -131.479163 149 32833ft 471kts
06-Apr-11 15:50 54.856950 -131.359312 149 32833ft 471kts
06-Apr-11 15:51 54.745527 -131.240180 149 32834ft 471kts
06-Apr-11 15:52 54.633717 -131.121410 149 32835ft 471kts
06-Apr-11 15:53 54.522505 -131.004028 147 32838ft 471kts
06-Apr-11 15:54 54.427407 -130.903856 147 32842ft 471kts
06-Apr-11 15:55 54.317916 -130.789664 147 32839ft 471kts
06-Apr-11 15:56 54.222911 -130.691098 147 32839ft 471kts
06-Apr-11 15:57 54.111272 -130.576329 148 32840ft 471kts
06-Apr-11 15:58 53.999219 -130.461762 148 32839ft 471kts
06-Apr-11 15:59 53.886908 -130.347538 148 32840ft 471kts
06-Apr-11 16:00 53.774429 -130.233779 148 32839ft 471kts
06-Apr-11 16:01 53.662083 -130.120877 148 32840ft 471kts
06-Apr-11 16:05 53.216417 -129.680152 148 32810ft 449kts
06-Apr-11 16:06 53.126268 -129.592369 149 32820ft 459kts
06-Apr-11 16:07 53.016158 -129.485976 149 32820ft 459kts
06-Apr-11 16:08 52.905860 -129.379603 149 32818ft 459kts
06-Apr-11 16:09 52.795956 -129.274287 149 32818ft 458kts
06-Apr-11 16:10 52.685321 -129.168909 149 32818ft 458kts
06-Apr-11 16:11 52.574969 -129.064441 149 32818ft 458kts
06-Apr-11 16:12 52.464660 -128.960620 149 32818ft 458kts
06-Apr-11 16:13 52.354997 -128.858016 149 32819ft 458kts
06-Apr-11 16:14 52.244173 -128.754927 149 32819ft 458kts
06-Apr-11 16:15 52.134111 -128.653146 149 32821ft 459kts
06-Apr-11 16:16 52.023598 -128.551733 150 32819ft 458kts
06-Apr-11 16:17 51.912617 -128.450482 150 32819ft 458kts
06-Apr-11 16:18 51.801286 -128.349273 150 32819ft 458kts
06-Apr-11 16:19 51.690525 -128.249083 150 32818ft 458kts
06-Apr-11 16:20 51.579039 -128.148879 150 32818ft 458kts
06-Apr-11 16:21 51.467885 -128.049522 150 32819ft 458kts
06-Apr-11 16:22 51.356932 -127.950935 150 32820ft 458kts
06-Apr-11 16:23 51.245430 -127.852389 150 32819ft 458kts
06-Apr-11 16:24 51.134007 -127.754428 150 32818ft 458kts
06-Apr-11 16:25 51.022309 -127.656821 150 32819ft 458kts
06-Apr-11 16:26 50.911342 -127.560521 151 32819ft 458kts
06-Apr-11 16:27 50.799419 -127.464085 151 32819ft 458kts
06-Apr-11 16:28 50.687560 -127.367831 150 32818ft 458kts
06-Apr-11 16:29 50.586411 -127.245778 142 32820ft 458kts
06-Apr-11 16:30 50.485663 -127.123498 141 32819ft 458kts
06-Apr-11 16:31 50.384714 -127.001645 141 32819ft 458kts
06-Apr-11 16:32 50.284427 -126.881275 141 32819ft 458kts
06-Apr-11 16:33 50.183350 -126.760705 142 32820ft 458kts
06-Apr-11 16:34 50.082311 -126.640763 142 32820ft 458kts
06-Apr-11 16:35 49.981724 -126.522216 142 32819ft 458kts
06-Apr-11 16:36 49.880159 -126.403115 142 32819ft 458kts
06-Apr-11 16:37 49.778288 -126.284123 142 32819ft 458kts
06-Apr-11 16:38 49.676659 -126.166047 142 32819ft 458kts
06-Apr-11 16:39 49.574547 -126.048009 142 32818ft 458kts
06-Apr-11 16:40 49.472337 -125.930534 142 32819ft 458kts
06-Apr-11 16:41 49.370096 -125.813655 142 32819ft 458kts
06-Apr-11 16:42 49.268502 -125.698085 142 32818ft 458kts
06-Apr-11 16:43 49.166682 -125.582883 142 32818ft 458kts
06-Apr-11 16:44 49.064798 -125.468606 143 32828ft 458kts
06-Apr-11 16:45 48.962723 -125.354390 143 33222ft 458kts
06-Apr-11 16:46 48.859884 -125.239865 143 33611ft 457kts
06-Apr-11 16:47 48.756850 -125.125726 143 34000ft 467kts
06-Apr-11 16:48 48.651599 -125.009752 145 34403ft 465kts
06-Apr-11 16:49 48.548218 -124.896419 146 34600ft 456kts
06-Apr-11 16:50 48.445945 -124.784890 147 34600ft 452kts
06-Apr-11 16:51 48.344741 -124.675064 147 34604ft 449kts
06-Apr-11 16:52 48.235566 -124.595554 165 34604ft 436kts
06-Apr-11 16:53 48.139756 -124.548893 165 34604ft 435kts
06-Apr-11 16:54 48.025940 -124.494228 166 34599ft 433kts
06-Apr-11 16:55 47.911246 -124.439139 166 34598ft 433kts
06-Apr-11 16:56 47.796594 -124.384282 166 34597ft 433kts
06-Apr-11 16:57 47.682325 -124.329879 166 34597ft 432kts
06-Apr-11 16:58 47.567906 -124.275657 166 34597ft 432kts
06-Apr-11 17:00 47.335986 -124.209178 177 34601ft 425kts
06-Apr-11 17:01 47.218436 -124.190903 177 34601ft 425kts
06-Apr-11 17:02 47.100512 -124.172670 177 34601ft 425kts
06-Apr-11 17:03 46.983264 -124.154602 177 34600ft 425kts
06-Apr-11 17:04 46.866109 -124.124852 172 34600ft 428kts
06-Apr-11 17:05 46.749464 -124.090029 172 34599ft 428kts
06-Apr-11 17:06 46.632895 -124.055426 172 34598ft 428kts
06-Apr-11 17:07 46.516296 -124.020950 172 34598ft 428kts
06-Apr-11 17:08 46.399616 -123.986624 172 34597ft 428kts
06-Apr-11 17:09 46.283520 -123.952600 172 34604ft 428kts
06-Apr-11 17:10 46.167224 -123.918656 172 34603ft 428kts
06-Apr-11 17:11 46.051140 -123.884944 172 34603ft 428kts
06-Apr-11 17:12 45.934546 -123.851226 172 34602ft 428kts
06-Apr-11 17:13 45.818112 -123.817685 172 34601ft 428kts
06-Apr-11 17:14 45.702903 -123.784651 172 34601ft 428kts
06-Apr-11 17:15 45.586088 -123.751297 172 34600ft 428kts
06-Apr-11 17:16 45.469710 -123.718193 172 34600ft 428kts
06-Apr-11 17:17 45.353854 -123.685358 172 34599ft 428kts
06-Apr-11 17:18 45.237064 -123.652414 172 34607ft 428kts
06-Apr-11 17:19 45.119811 -123.619473 172 34644ft 437kts
06-Apr-11 17:20 45.000401 -123.586093 172 34644ft 439kts
06-Apr-11 17:21 44.880558 -123.552713 172 34643ft 440kts
06-Apr-11 17:22 44.760595 -123.519447 172 34643ft 441kts
06-Apr-11 17:23 44.641738 -123.486880 172 34637ft 441kts
06-Apr-11 17:24 44.522083 -123.454009 172 34636ft 441kts
06-Apr-11 17:25 44.401531 -123.421006 172 34636ft 441kts
06-Apr-11 17:26 44.283009 -123.388667 172 34640ft 441kts
06-Apr-11 17:27 44.162590 -123.355953 172 34639ft 441kts
06-Apr-11 17:28 44.042242 -123.323426 172 34639ft 441kts
06-Apr-11 17:29 43.921864 -123.291013 172 34639ft 441kts
06-Apr-11 17:30 43.801864 -123.258829 172 34637ft 441kts
06-Apr-11 17:31 43.681248 -123.226630 172 34639ft 441kts
06-Apr-11 17:32 43.560944 -123.194629 172 34638ft 441kts
06-Apr-11 17:33 43.440579 -123.162740 172 34638ft 441kts
06-Apr-11 17:34 43.322418 -123.131566 172 34642ft 441kts
06-Apr-11 17:35 43.201974 -123.099920 172 34642ft 441kts
06-Apr-11 17:36 43.081973 -123.068498 172 34642ft 441kts
06-Apr-11 17:37 42.961662 -123.037111 172 34709ft 438kts
06-Apr-11 17:38 42.842444 -123.006159 171 34720ft 436kts
06-Apr-11 17:39 42.721365 -122.974853 172 34691ft 455kts
06-Apr-11 17:40 42.595419 -122.942416 172 34526ft 465kts
06-Apr-11 17:41 42.467174 -122.909157 170 34150ft 473kts
06-Apr-11 17:42 42.342037 -122.872177 170 33788ft 477kts
06-Apr-11 17:43 42.212336 -122.834132 169 33401ft 479kts
06-Apr-11 17:44 42.081813 -122.796013 169 33046ft 481kts
06-Apr-11 17:45 41.950955 -122.757968 169 33033ft 482kts
06-Apr-11 17:46 41.820670 -122.720244 169 33033ft 482kts
06-Apr-11 17:47 41.689932 -122.682544 169 33034ft 482kts
06-Apr-11 17:48 41.559055 -122.644956 169 33035ft 482kts
06-Apr-11 17:49 41.427687 -122.607382 169 33035ft 482kts
06-Apr-11 17:50 41.320392 -122.576819 169 33032ft 482kts
06-Apr-11 17:51 41.188974 -122.539511 169 33032ft 482kts
06-Apr-11 17:52 41.058023 -122.502502 169 33033ft 482kts
06-Apr-11 17:53 40.928408 -122.466183 170 33029ft 482kts
06-Apr-11 17:54 40.797684 -122.429610 170 33029ft 482kts
06-Apr-11 17:55 40.666485 -122.392976 170 33030ft 482kts
06-Apr-11 17:56 40.535375 -122.356516 170 33031ft 482kts
06-Apr-11 17:57 40.404362 -122.320215 170 33031ft 482kts
06-Apr-11 17:58 40.275633 -122.284693 170 33028ft 482kts
06-Apr-11 17:59 40.145036 -122.248793 170 33029ft 482kts
06-Apr-11 18:00 40.015697 -122.200953 164 33030ft 484kts
06-Apr-11 18:01 39.887763 -122.146892 164 33031ft 484kts
06-Apr-11 18:02 39.759503 -122.092921 164 33031ft 484kts
06-Apr-11 18:03 39.631456 -122.039257 164 33032ft 484kts
06-Apr-11 18:04 39.503288 -121.985763 164 33033ft 484kts
06-Apr-11 18:05 39.374968 -121.932420 164 33034ft 484kts
06-Apr-11 18:06 39.248639 -121.880184 164 33031ft 484kts
06-Apr-11 18:07 39.119743 -121.827052 164 33033ft 484kts
06-Apr-11 18:08 38.991487 -121.774257 164 33024ft 484kts
06-Apr-11 18:09 38.864922 -121.722400 165 32963ft 465kts
06-Apr-11 18:10 38.744296 -121.673214 165 32961ft 449kts
06-Apr-11 18:11 38.626037 -121.625142 164 32959ft 443kts
06-Apr-11 18:12 38.510475 -121.578360 163 32956ft 440kts
06-Apr-11 18:13 38.404318 -121.508048 135 32935ft 449kts
06-Apr-11 18:14 38.306297 -121.428712 162 32964ft 438kts
06-Apr-11 18:15 38.194326 -121.369334 157 32962ft 439kts
06-Apr-11 18:16 38.082977 -121.306562 157 32961ft 438kts
06-Apr-11 18:17 37.972600 -121.244330 157 32959ft 438kts
06-Apr-11 18:18 37.861302 -121.181774 157 32958ft 438kts
06-Apr-11 18:19 37.749834 -121.119315 157 32957ft 438kts
06-Apr-11 18:20 37.638530 -121.057162 157 32956ft 438kts
06-Apr-11 18:21 37.528016 -120.995663 157 32959ft 438kts
06-Apr-11 18:22 37.413145 -120.931952 160 33020ft 466kts
06-Apr-11 18:23 37.293075 -120.865579 160 33025ft 488kts
06-Apr-11 18:24 37.167470 -120.796383 159 33025ft 499kts
06-Apr-11 18:25 37.039541 -120.726168 158 33025ft 505kts
06-Apr-11 18:26 36.910734 -120.655745 158 33026ft 507kts
06-Apr-11 18:27 36.781413 -120.585322 158 33033ft 509kts
06-Apr-11 18:28 36.651362 -120.514728 158 33027ft 510kts
06-Apr-11 18:29 36.523190 -120.445449 159 33027ft 510kts
06-Apr-11 18:30 36.393148 -120.375591 158 33025ft 510kts
06-Apr-11 18:31 36.264910 -120.306795 159 33018ft 510kts
06-Apr-11 18:32 36.134620 -120.237116 159 33020ft 510kts
06-Apr-11 18:33 36.004572 -120.167810 159 33022ft 510kts
06-Apr-11 18:34 35.873217 -120.098073 156 33001ft 513kts
06-Apr-11 18:35 35.742869 -120.029103 155 33002ft 508kts
06-Apr-11 18:36 35.617974 -119.950315 145 33023ft 511kts
06-Apr-11 18:37 35.520245 -119.867988 143 33031ft 519kts
06-Apr-11 18:38 35.401278 -119.765582 144 33030ft 525kts
06-Apr-11 18:39 35.261882 -119.659174 167 33016ft 508kts
06-Apr-11 18:40 35.147542 -119.668264 194 33024ft 494kts
06-Apr-11 18:41 35.014390 -119.641826 142 33015ft 513kts
06-Apr-11 18:42 34.909292 -119.523860 140 33017ft 514kts
06-Apr-11 18:43 34.804092 -119.407841 135 33023ft 514kts
06-Apr-11 18:44 34.702164 -119.287473 135 33024ft 514kts
06-Apr-11 18:45 34.599649 -119.166394 135 32816ft 517kts
06-Apr-11 18:46 34.498773 -119.047664 135 30008ft 493kts
06-Apr-11 18:47 34.402575 -118.934819 135 26859ft 470kts
06-Apr-11 18:48 34.300131 -118.855702 171 23792ft 443kts
06-Apr-11 18:49 34.183722 -118.817366 166 20792ft 424kts
06-Apr-11 18:50 34.074287 -118.777442 165 17813ft 401kts
06-Apr-11 18:51 33.970713 -118.739618 165 14830ft 379kts
06-Apr-11 18:52 33.873145 -118.704264 166 13993ft 374kts
06-Apr-11 18:53 33.773982 -118.668210 166 13999ft 373kts
06-Apr-11 18:54 33.674874 -118.632881 166 14001ft 373kts
06-Apr-11 18:55 33.613863 -118.541169 90 13648ft 362kts
06-Apr-11 18:56 33.629693 -118.428639 74 11535ft 326kts
06-Apr-11 18:57 33.647622 -118.327604 74 9222ft 299kts
06-Apr-11 18:58 33.664729 -118.232818 74 8543ft 301kts
06-Apr-11 19:00 33.714490 -118.057977 54 5014ft 261kts
06-Apr-11 19:01 33.754808 -117.982187 54 5000ft 273kts
06-Apr-11 19:02 33.796760 -117.907191 54 4997ft 279kts
06-Apr-11 19:03 33.841522 -117.832265 54 4314ft 275kts
06-Apr-11 19:04 33.852699 -117.752646 145 3804ft 261kts
06-Apr-11 19:05 33.795811 -117.790999 211 2994ft 218kts
06-Apr-11 19:06 33.745780 -117.824469 208 2965ft 172kts
06-Apr-11 19:07 33.712944 -117.845202 206 1477ft 173kts
06-Apr-11 19:08 33.672901 -117.870674 210 63ft 55kts
06-Apr-11 19:09 33.671991 -117.872552 239 63ft 0kts
06-Apr-11 19:10 33.670309 -117.873467 143 63ft 0kts
06-Apr-11 19:11 33.670220 -117.869823 39 63ft 34kts
06-Apr-11 19:12 33.677315 -117.863918 109 63ft 5kts
06-Apr-11 19:13 33.677252 -117.863749 114 63ft 0kts
06-Apr-11 19:14 33.677252 -117.863749 114 63ft 0kts
06-Apr-11 19:15 33.677252 -117.863749 114 63ft 0kts
06-Apr-11 19:16 33.677252 -117.863749 114 63ft 0kts
06-Apr-11 19:17 33.677252 -117.863749 114 63ft 0kts
06-Apr-11 19:18 33.677252 -117.863749 114 63ft 0kts

Navigation Log

Ident Type
Flight plan parsing failed, navigation log unavailable